createdAt,value
2019-01-24T00:02:34.644Z,-1.30
2019-01-24T00:06:38.489Z,-1.40
2019-01-24T00:10:42.482Z,-1.60
2019-01-24T00:26:56.806Z,-1.80
2019-01-24T00:31:00.734Z,-1.80
2019-01-24T00:39:09.156Z,-1.80
2019-01-24T00:43:12.983Z,-1.80
2019-01-24T00:47:16.933Z,-1.80
2019-01-24T00:59:27.826Z,-1.80
2019-01-24T01:03:31.719Z,-1.70
2019-01-24T01:11:39.016Z,-1.70
2019-01-24T01:23:49.788Z,-1.70
2019-01-24T01:31:57.294Z,-1.80
2019-01-24T01:40:06.271Z,-1.90
2019-01-24T01:44:10.141Z,-1.90
2019-01-24T01:48:14.368Z,-1.90
2019-01-24T01:52:18.511Z,-1.90
2019-01-24T01:56:22.315Z,-1.90
2019-01-24T02:04:29.776Z,-1.90
2019-01-24T02:08:33.603Z,-1.90
2019-01-24T02:16:41.101Z,-1.80
2019-01-24T02:28:51.699Z,-1.90
2019-01-24T02:36:58.952Z,-1.90
2019-01-24T02:41:02.909Z,-1.90
2019-01-24T02:45:08.880Z,-2.10
2019-01-24T02:57:19.682Z,-2.00
2019-01-24T03:13:34.452Z,-2.10
2019-01-24T03:17:38.440Z,-2.10
2019-01-24T03:21:42.314Z,-2.10
2019-01-24T03:25:46.203Z,-2.10
2019-01-24T03:33:53.892Z,-1.90
2019-01-24T03:42:01.338Z,-1.70
2019-01-24T03:46:05.351Z,-1.70
2019-01-24T03:50:11.940Z,-1.70
2019-01-24T03:54:15.930Z,-1.80
2019-01-24T03:58:19.842Z,-1.90
2019-01-24T04:02:23.867Z,-1.80
2019-01-24T04:10:31.135Z,-1.70
2019-01-24T04:14:35.043Z,-1.60
2019-01-24T04:30:49.379Z,-1.30
2019-01-24T04:34:53.359Z,-1.20
2019-01-24T04:43:00.591Z,-1.20
2019-01-24T04:47:04.496Z,-1.20
2019-01-24T04:51:08.384Z,-1.20
2019-01-24T05:11:26.904Z,-1.20
2019-01-24T05:23:37.551Z,-1.50
2019-01-24T05:43:54.940Z,-1.60
2019-01-24T05:47:58.720Z,-1.60
2019-01-24T05:52:02.472Z,-1.50
2019-01-24T05:56:06.201Z,-1.70
2019-01-24T06:00:23.559Z,-1.70
2019-01-24T06:04:27.390Z,-1.90
2019-01-24T06:08:31.116Z,-1.70
2019-01-24T06:12:34.866Z,-2.00
2019-01-24T06:16:38.602Z,-1.90
2019-01-24T06:20:42.354Z,-1.90
2019-01-24T06:24:46.083Z,-1.80
2019-01-24T06:28:49.844Z,-1.80
2019-01-24T06:32:53.600Z,-1.80
2019-01-24T06:36:57.938Z,-1.80
2019-01-24T06:41:01.683Z,-1.80
2019-01-24T06:45:06.826Z,-1.80
2019-01-24T06:49:10.558Z,-1.70
2019-01-24T06:53:14.314Z,-1.70
2019-01-24T06:57:18.067Z,-1.60
2019-01-24T07:01:21.806Z,-1.60
2019-01-24T07:05:25.575Z,-1.50
2019-01-24T07:09:29.591Z,-1.50
2019-01-24T07:13:36.146Z,-1.50
2019-01-24T07:17:40.158Z,-1.50
2019-01-24T07:21:43.944Z,-1.50
2019-01-24T07:25:47.687Z,-1.50
2019-01-24T07:29:51.425Z,-1.50
2019-01-24T07:33:55.182Z,-1.40
2019-01-24T07:37:58.923Z,-1.40
2019-01-24T07:42:02.686Z,-1.30
2019-01-24T07:46:07.169Z,-1.40
2019-01-24T07:50:11.870Z,-1.40
2019-01-24T07:58:18.990Z,-1.50
2019-01-24T08:02:22.729Z,-1.50
2019-01-24T08:06:26.539Z,-1.50
2019-01-24T08:10:30.338Z,-1.50
2019-01-24T08:18:37.674Z,-1.50
2019-01-24T08:22:41.446Z,-1.60
2019-01-24T08:26:45.178Z,-1.50
2019-01-24T08:30:48.914Z,-1.50
2019-01-24T08:34:52.660Z,-1.50
2019-01-24T08:38:56.489Z,-1.60
2019-01-24T08:43:00.214Z,-1.50
2019-01-24T08:47:04.051Z,-1.50
2019-01-24T08:51:08.175Z,-1.40
2019-01-24T08:55:18.718Z,-1.20
2019-01-24T08:59:22.462Z,-1.20
2019-01-24T09:03:26.223Z,-1.20
2019-01-24T09:07:30.110Z,-1.10
2019-01-24T09:11:34.150Z,-1.30
2019-01-24T09:15:38.430Z,-1.20
2019-01-24T09:19:42.174Z,-1.10
2019-01-24T09:23:45.935Z,-1.00
2019-01-24T09:27:50.082Z,-1.00
2019-01-24T09:31:53.822Z,-0.90
2019-01-24T09:35:57.555Z,-0.80
2019-01-24T09:40:01.351Z,-0.90
2019-01-24T09:44:05.205Z,-0.80
2019-01-24T09:48:09.386Z,-0.70
2019-01-24T09:52:13.130Z,-0.70
2019-01-24T09:56:16.863Z,-0.80
2019-01-24T10:00:22.982Z,-0.70
2019-01-24T10:04:26.722Z,-0.60
2019-01-24T10:08:30.454Z,-0.70
2019-01-24T10:12:34.202Z,-0.70
2019-01-24T10:16:37.960Z,-0.60
2019-01-24T10:20:41.730Z,-0.60
2019-01-24T10:24:45.486Z,-0.70
2019-01-24T10:28:49.219Z,-0.50
2019-01-24T10:32:53.434Z,-0.70
2019-01-24T10:36:57.134Z,-0.80
2019-01-24T10:41:00.878Z,-0.80
2019-01-24T10:45:07.110Z,-0.80
2019-01-24T10:49:10.850Z,-0.70
2019-01-24T10:53:14.589Z,-0.90
2019-01-24T10:57:18.482Z,-0.60
2019-01-24T11:01:22.214Z,-0.50
2019-01-24T11:05:25.982Z,-0.50
2019-01-24T11:09:29.729Z,-0.60
2019-01-24T11:13:33.542Z,-0.60
2019-01-24T11:17:37.282Z,-0.60
2019-01-24T11:21:41.098Z,-0.70
2019-01-24T11:25:45.458Z,-0.70
2019-01-24T11:29:49.274Z,-0.50
2019-01-24T11:33:53.023Z,-0.40
2019-01-24T11:37:57.262Z,-0.40
2019-01-24T11:42:00.997Z,-0.30
2019-01-24T11:46:04.994Z,-0.10
2019-01-24T11:50:14.267Z,0.10
2019-01-24T11:54:18.010Z,0.30
2019-01-24T11:58:21.742Z,0.30
2019-01-24T12:02:25.478Z,0.30
2019-01-24T12:06:29.199Z,0.10
2019-01-24T12:10:33.110Z,-0.30
2019-01-24T12:14:36.842Z,-0.50
2019-01-24T12:18:40.580Z,-0.50
2019-01-24T12:22:44.430Z,-0.30
2019-01-24T12:26:48.178Z,-0.20
2019-01-24T12:30:51.910Z,-0.40
2019-01-24T12:34:55.703Z,-0.10
2019-01-24T12:38:59.434Z,0.30
2019-01-24T12:43:03.183Z,0.60
2019-01-24T12:47:06.919Z,0.70
2019-01-24T12:51:10.659Z,0.40
2019-01-24T12:55:15.171Z,0.30
2019-01-24T12:59:18.918Z,0.30
2019-01-24T13:03:22.658Z,0.00
2019-01-24T13:07:26.402Z,0.00
2019-01-24T13:11:30.155Z,-0.10
2019-01-24T13:15:34.594Z,0.00
2019-01-24T13:19:38.621Z,0.10
2019-01-24T13:23:42.375Z,-0.20
2019-01-24T13:27:46.134Z,-0.20
2019-01-24T13:31:49.870Z,-0.50
2019-01-24T13:35:53.630Z,-0.50
2019-01-24T13:39:57.362Z,-0.30
2019-01-24T13:44:01.114Z,-0.50
2019-01-24T13:48:05.542Z,-0.50
2019-01-24T13:52:09.580Z,-0.40
2019-01-24T13:56:13.282Z,-0.30
2019-01-24T14:00:19.606Z,-0.50
2019-01-24T14:04:34.094Z,-0.50
2019-01-24T14:08:38.171Z,-0.30
2019-01-24T14:12:41.918Z,-0.30
2019-01-24T14:16:45.666Z,-0.30
2019-01-24T14:20:49.547Z,-0.40
2019-01-24T14:24:53.302Z,-0.30
2019-01-24T14:28:57.066Z,-0.30
2019-01-24T14:33:01.054Z,-0.30
2019-01-24T14:37:04.883Z,-0.50
2019-01-24T14:41:08.606Z,-0.60
2019-01-24T14:45:14.978Z,-0.60
2019-01-24T14:49:19.734Z,-0.70
2019-01-24T14:53:23.634Z,-0.60
2019-01-24T14:57:27.379Z,-0.80
2019-01-24T15:01:31.204Z,-0.80
2019-01-24T15:05:34.930Z,-0.80
2019-01-24T15:09:38.673Z,-1.00
2019-01-24T15:13:42.402Z,-1.10
2019-01-24T15:17:46.215Z,-1.10
2019-01-24T15:21:50.528Z,-1.10
2019-01-24T15:25:54.346Z,-1.00
2019-01-24T15:29:58.095Z,-1.10
2019-01-24T15:38:05.273Z,-1.40
2019-01-24T15:42:09.018Z,-1.50
2019-01-24T15:46:12.822Z,-1.50
2019-01-24T15:50:18.083Z,-1.50
2019-01-24T15:54:21.806Z,-1.70
2019-01-24T15:58:25.558Z,-1.80
2019-01-24T16:02:29.297Z,-1.80
2019-01-24T16:06:33.050Z,-1.80
2019-01-24T16:14:40.095Z,-1.70
2019-01-24T16:18:43.852Z,-1.60
2019-01-24T16:22:47.666Z,-1.60
2019-01-24T16:26:51.650Z,-1.60
2019-01-24T16:30:56.643Z,-1.60
2019-01-24T16:35:00.599Z,-1.60
2019-01-24T16:39:07.942Z,-1.70
2019-01-24T16:43:12.022Z,-1.60
2019-01-24T16:47:15.755Z,-1.60
2019-01-24T16:51:19.647Z,-1.60
2019-01-24T16:55:23.954Z,-1.60
2019-01-24T16:59:27.774Z,-1.10
2019-01-24T17:03:31.672Z,-1.50
2019-01-24T17:07:35.523Z,-1.50
2019-01-24T17:11:39.378Z,-1.60
2019-01-24T17:15:43.362Z,-1.60
2019-01-24T17:19:47.270Z,-1.60
2019-01-24T17:23:51.009Z,-1.50
2019-01-24T17:27:54.830Z,-1.50
2019-01-24T17:31:58.888Z,-1.50
2019-01-24T17:36:02.701Z,-1.50
2019-01-24T17:40:10.603Z,-1.40
2019-01-24T17:44:14.335Z,-1.50
2019-01-24T17:48:18.082Z,-1.60
2019-01-24T17:52:21.812Z,-1.60
2019-01-24T17:56:25.562Z,-1.60
2019-01-24T18:00:32.710Z,-1.60
2019-01-24T18:04:36.446Z,-1.60
2019-01-24T18:08:40.198Z,-1.50
2019-01-24T18:12:43.963Z,-1.60
2019-01-24T18:16:47.687Z,-1.60
2019-01-24T18:20:51.731Z,-1.60
2019-01-24T18:24:55.471Z,-1.60
2019-01-24T18:28:59.210Z,-1.60
2019-01-24T18:33:03.112Z,-1.60
2019-01-24T18:37:06.843Z,-1.60
2019-01-24T18:41:10.742Z,-1.60
2019-01-24T18:45:17.183Z,-1.60
2019-01-24T18:49:21.011Z,-1.60
2019-01-24T18:53:24.830Z,-1.60
2019-01-24T18:57:28.554Z,-1.60
2019-01-24T19:01:32.315Z,-1.60
2019-01-24T19:05:36.227Z,-1.70
2019-01-24T19:09:39.970Z,-1.70
2019-01-24T19:13:43.722Z,-1.80
2019-01-24T19:17:47.831Z,-1.80
2019-01-24T19:21:51.583Z,-1.90
2019-01-24T19:25:55.338Z,-1.90
2019-01-24T19:29:59.091Z,-1.90
2019-01-24T19:34:02.855Z,-2.00
2019-01-24T19:38:06.777Z,-2.00
2019-01-24T19:42:10.526Z,-2.10
2019-01-24T19:46:14.266Z,-2.20
2019-01-24T19:50:20.835Z,-2.20
2019-01-24T19:54:24.856Z,-2.10
2019-01-24T19:58:28.598Z,-2.10
2019-01-24T20:02:32.340Z,-2.10
2019-01-24T20:06:36.931Z,-2.10
2019-01-24T20:10:40.787Z,-2.10
2019-01-24T20:14:44.633Z,-2.10
2019-01-24T20:18:48.434Z,-2.20
2019-01-24T20:22:52.632Z,-2.20
2019-01-24T20:26:56.412Z,-2.20
2019-01-24T20:31:00.208Z,-2.20
2019-01-24T20:35:04.828Z,-2.30
2019-01-24T20:39:09.677Z,-2.30
2019-01-24T20:43:14.513Z,-2.40
2019-01-24T20:47:18.304Z,-2.40
2019-01-24T20:51:22.105Z,-2.40
2019-01-24T20:55:26.227Z,-2.40
2019-01-24T20:59:30.101Z,-2.50
2019-01-24T21:03:33.973Z,-2.50
2019-01-24T21:07:37.827Z,-2.50
2019-01-24T21:11:41.666Z,-2.50
2019-01-24T21:15:45.464Z,-2.50
2019-01-24T21:19:49.342Z,-2.50
2019-01-24T21:23:53.129Z,-2.40
2019-01-24T21:27:57.072Z,-2.40
2019-01-24T21:32:00.884Z,-2.40
2019-01-24T21:36:05.148Z,-2.30
2019-01-24T21:40:11.030Z,-2.40
2019-01-24T21:44:14.850Z,-2.30
2019-01-24T21:48:19.862Z,-2.30
2019-01-24T21:52:23.801Z,-2.30
2019-01-24T21:56:28.008Z,-2.20
2019-01-24T22:00:32.709Z,-2.30
2019-01-24T22:04:36.880Z,-2.20
2019-01-24T22:08:40.812Z,-2.20
2019-01-24T22:12:44.873Z,-2.20
2019-01-24T22:16:48.680Z,-2.10
2019-01-24T22:20:55.707Z,-2.10
2019-01-24T22:24:57.975Z,-2.10
2019-01-24T22:29:01.773Z,-2.20
2019-01-24T22:33:08.342Z,-2.20
2019-01-24T22:37:12.656Z,-2.20
2019-01-24T22:41:16.527Z,-2.20
2019-01-24T22:45:22.360Z,-2.30
2019-01-24T22:49:26.224Z,-2.40
2019-01-24T22:53:30.017Z,-2.50
2019-01-24T22:57:34.728Z,-2.50
2019-01-24T23:01:46.176Z,-2.40
2019-01-24T23:05:50.025Z,-2.30
2019-01-24T23:09:53.860Z,-2.30
2019-01-24T23:13:57.654Z,-2.40
2019-01-24T23:18:01.784Z,-2.40
2019-01-24T23:22:05.824Z,-2.50
2019-01-24T23:26:09.764Z,-2.60
2019-01-24T23:30:13.824Z,-2.50
2019-01-24T23:34:17.706Z,-2.50
2019-01-24T23:38:21.596Z,-2.50
2019-01-24T23:42:25.380Z,-2.50
2019-01-24T23:46:29.248Z,-2.50
2019-01-24T23:50:33.108Z,-2.50
2019-01-24T23:54:36.905Z,-2.50
2019-01-24T23:58:40.724Z,-2.50
